sensor_id;sensor_type;location;lat;lon;timestamp;P1;durP1;ratioP1;P2;durP2;ratioP2
59418;SDS011;45224;50.904;6.038;2023-04-10T00:00:07;5.10;;;3.67;;
59418;SDS011;45224;50.904;6.038;2023-04-10T00:01:38;4.18;;;3.40;;
59418;SDS011;45224;50.904;6.038;2023-04-10T00:03:09;5.95;;;3.75;;
59418;SDS011;45224;50.904;6.038;2023-04-10T00:04:40;4.47;;;3.70;;
59418;SDS011;45224;50.904;6.038;2023-04-10T00:06:10;5.20;;;3.70;;
59418;SDS011;45224;50.904;6.038;2023-04-10T00:07:41;4.27;;;3.50;;
59418;SDS011;45224;50.904;6.038;2023-04-10T00:09:11;4.63;;;3.57;;
59418;SDS011;45224;50.904;6.038;2023-04-10T00:10:42;4.60;;;3.67;;
59418;SDS011;45224;50.904;6.038;2023-04-10T00:12:12;4.20;;;3.40;;
59418;SDS011;45224;50.904;6.038;2023-04-10T00:13:44;4.13;;;3.42;;
59418;SDS011;45224;50.904;6.038;2023-04-10T00:15:15;4.87;;;3.30;;
59418;SDS011;45224;50.904;6.038;2023-04-10T00:16:45;5.20;;;3.80;;
59418;SDS011;45224;50.904;6.038;2023-04-10T00:18:15;5.17;;;3.80;;
59418;SDS011;45224;50.904;6.038;2023-04-10T00:19:46;4.33;;;3.40;;
59418;SDS011;45224;50.904;6.038;2023-04-10T00:21:16;4.93;;;3.70;;
59418;SDS011;45224;50.904;6.038;2023-04-10T00:22:47;3.87;;;2.83;;
59418;SDS011;45224;50.904;6.038;2023-04-10T00:24:18;4.68;;;3.45;;
59418;SDS011;45224;50.904;6.038;2023-04-10T00:25:48;4.63;;;3.40;;
59418;SDS011;45224;50.904;6.038;2023-04-10T00:27:19;3.87;;;2.73;;
59418;SDS011;45224;50.904;6.038;2023-04-10T00:28:50;5.80;;;3.38;;
59418;SDS011;45224;50.904;6.038;2023-04-10T00:30:20;5.20;;;3.63;;
59418;SDS011;45224;50.904;6.038;2023-04-10T00:31:51;4.70;;;3.45;;
59418;SDS011;45224;50.904;6.038;2023-04-10T00:33:21;6.30;;;3.43;;
59418;SDS011;45224;50.904;6.038;2023-04-10T00:34:52;4.57;;;3.40;;
59418;SDS011;45224;50.904;6.038;2023-04-10T00:36:22;3.93;;;2.97;;
59418;SDS011;45224;50.904;6.038;2023-04-10T00:37:53;4.30;;;3.23;;
59418;SDS011;45224;50.904;6.038;2023-04-10T00:39:25;3.45;;;2.90;;
59418;SDS011;45224;50.904;6.038;2023-04-10T00:40:55;4.13;;;3.10;;
59418;SDS011;45224;50.904;6.038;2023-04-10T00:42:26;3.60;;;3.10;;
59418;SDS011;45224;50.904;6.038;2023-04-10T00:43:57;4.05;;;2.90;;
59418;SDS011;45224;50.904;6.038;2023-04-10T00:45:27;3.53;;;2.70;;
59418;SDS011;45224;50.904;6.038;2023-04-10T00:46:58;4.63;;;3.30;;
59418;SDS011;45224;50.904;6.038;2023-04-10T00:48:29;3.90;;;2.88;;
59418;SDS011;45224;50.904;6.038;2023-04-10T00:50:00;4.30;;;3.15;;
59418;SDS011;45224;50.904;6.038;2023-04-10T00:51:31;4.63;;;3.53;;
59418;SDS011;45224;50.904;6.038;2023-04-10T00:53:01;5.88;;;3.25;;
59418;SDS011;45224;50.904;6.038;2023-04-10T00:54:32;4.22;;;2.80;;
59418;SDS011;45224;50.904;6.038;2023-04-10T00:57:35;3.88;;;3.05;;
59418;SDS011;45224;50.904;6.038;2023-04-10T00:59:06;3.55;;;2.92;;
59418;SDS011;45224;50.904;6.038;2023-04-10T01:00:36;4.57;;;3.43;;
59418;SDS011;45224;50.904;6.038;2023-04-10T01:02:07;4.37;;;3.37;;
59418;SDS011;45224;50.904;6.038;2023-04-10T01:03:40;4.00;;;3.40;;
59418;SDS011;45224;50.904;6.038;2023-04-10T01:05:12;4.35;;;2.85;;
59418;SDS011;45224;50.904;6.038;2023-04-10T01:08:37;4.18;;;3.35;;
59418;SDS011;45224;50.904;6.038;2023-04-10T01:10:21;4.25;;;3.20;;
59418;SDS011;45224;50.904;6.038;2023-04-10T01:12:24;4.40;;;3.13;;
59418;SDS011;45224;50.904;6.038;2023-04-10T01:14:41;3.95;;;2.90;;
59418;SDS011;45224;50.904;6.038;2023-04-10T01:16:24;3.25;;;2.80;;
59418;SDS011;45224;50.904;6.038;2023-04-10T01:20:04;3.95;;;2.95;;
59418;SDS011;45224;50.904;6.038;2023-04-10T01:21:41;3.80;;;3.10;;
59418;SDS011;45224;50.904;6.038;2023-04-10T01:27:02;3.78;;;3.28;;
59418;SDS011;45224;50.904;6.038;2023-04-10T01:30:26;4.07;;;3.30;;
59418;SDS011;45224;50.904;6.038;2023-04-10T01:32:00;4.03;;;3.30;;
59418;SDS011;45224;50.904;6.038;2023-04-10T01:33:39;3.78;;;3.22;;
59418;SDS011;45224;50.904;6.038;2023-04-10T01:35:15;4.43;;;3.35;;
59418;SDS011;45224;50.904;6.038;2023-04-10T01:36:50;4.32;;;3.58;;
59418;SDS011;45224;50.904;6.038;2023-04-10T01:38:28;4.15;;;3.30;;
59418;SDS011;45224;50.904;6.038;2023-04-10T01:41:32;3.70;;;2.90;;
59418;SDS011;45224;50.904;6.038;2023-04-10T01:44:46;4.32;;;3.30;;
59418;SDS011;45224;50.904;6.038;2023-04-10T01:46:19;3.90;;;3.40;;
59418;SDS011;45224;50.904;6.038;2023-04-10T01:47:51;4.20;;;3.30;;
59418;SDS011;45224;50.904;6.038;2023-04-10T01:50:59;4.25;;;3.03;;
59418;SDS011;45224;50.904;6.038;2023-04-10T01:52:34;3.88;;;3.00;;
59418;SDS011;45224;50.904;6.038;2023-04-10T01:54:27;4.45;;;3.08;;
59418;SDS011;45224;50.904;6.038;2023-04-10T01:56:01;4.10;;;3.42;;
59418;SDS011;45224;50.904;6.038;2023-04-10T01:57:35;5.05;;;3.38;;
59418;SDS011;45224;50.904;6.038;2023-04-10T01:59:06;3.85;;;3.08;;
59418;SDS011;45224;50.904;6.038;2023-04-10T02:00:37;4.22;;;3.53;;
59418;SDS011;45224;50.904;6.038;2023-04-10T02:02:12;3.58;;;2.83;;
59418;SDS011;45224;50.904;6.038;2023-04-10T02:03:43;3.67;;;3.00;;
59418;SDS011;45224;50.904;6.038;2023-04-10T02:05:16;3.83;;;2.87;;
59418;SDS011;45224;50.904;6.038;2023-04-10T02:06:59;3.75;;;3.10;;
59418;SDS011;45224;50.904;6.038;2023-04-10T02:08:34;4.13;;;3.10;;
59418;SDS011;45224;50.904;6.038;2023-04-10T02:10:36;4.28;;;2.85;;
59418;SDS011;45224;50.904;6.038;2023-04-10T02:12:57;4.22;;;3.20;;
59418;SDS011;45224;50.904;6.038;2023-04-10T02:14:27;3.80;;;2.75;;
59418;SDS011;45224;50.904;6.038;2023-04-10T02:16:01;3.33;;;2.80;;
59418;SDS011;45224;50.904;6.038;2023-04-10T02:17:37;3.80;;;3.10;;
59418;SDS011;45224;50.904;6.038;2023-04-10T02:19:09;8.77;;;3.17;;
59418;SDS011;45224;50.904;6.038;2023-04-10T02:20:42;3.90;;;3.42;;
59418;SDS011;45224;50.904;6.038;2023-04-10T02:22:16;4.15;;;3.20;;
59418;SDS011;45224;50.904;6.038;2023-04-10T02:23:47;5.28;;;3.50;;
59418;SDS011;45224;50.904;6.038;2023-04-10T02:25:18;4.45;;;3.22;;
59418;SDS011;45224;50.904;6.038;2023-04-10T02:26:50;4.30;;;3.30;;
59418;SDS011;45224;50.904;6.038;2023-04-10T02:28:21;3.97;;;3.00;;
59418;SDS011;45224;50.904;6.038;2023-04-10T02:29:52;4.57;;;3.10;;
59418;SDS011;45224;50.904;6.038;2023-04-10T02:31:23;4.07;;;3.00;;
59418;SDS011;45224;50.904;6.038;2023-04-10T02:32:53;4.05;;;3.00;;
59418;SDS011;45224;50.904;6.038;2023-04-10T02:34:24;3.70;;;2.90;;
59418;SDS011;45224;50.904;6.038;2023-04-10T02:35:55;5.07;;;3.03;;
59418;SDS011;45224;50.904;6.038;2023-04-10T02:37:25;4.27;;;3.23;;
59418;SDS011;45224;50.904;6.038;2023-04-10T02:38:56;8.18;;;3.72;;
59418;SDS011;45224;50.904;6.038;2023-04-10T02:40:28;4.68;;;3.20;;
59418;SDS011;45224;50.904;6.038;2023-04-10T02:42:11;4.70;;;3.10;;
59418;SDS011;45224;50.904;6.038;2023-04-10T02:43:43;3.90;;;3.03;;
59418;SDS011;45224;50.904;6.038;2023-04-10T02:45:14;4.65;;;3.58;;
59418;SDS011;45224;50.904;6.038;2023-04-10T02:46:46;4.53;;;3.33;;
59418;SDS011;45224;50.904;6.038;2023-04-10T02:48:18;3.83;;;3.13;;
59418;SDS011;45224;50.904;6.038;2023-04-10T02:49:54;5.10;;;3.30;;
59418;SDS011;45224;50.904;6.038;2023-04-10T02:51:27;5.22;;;3.58;;
59418;SDS011;45224;50.904;6.038;2023-04-10T02:52:57;4.47;;;3.17;;
59418;SDS011;45224;50.904;6.038;2023-04-10T02:54:28;4.13;;;3.13;;
59418;SDS011;45224;50.904;6.038;2023-04-10T02:55:58;4.60;;;3.33;;
59418;SDS011;45224;50.904;6.038;2023-04-10T02:57:30;4.13;;;3.38;;
59418;SDS011;45224;50.904;6.038;2023-04-10T02:59:00;5.22;;;3.17;;
59418;SDS011;45224;50.904;6.038;2023-04-10T03:00:32;3.90;;;3.05;;
59418;SDS011;45224;50.904;6.038;2023-04-10T03:03:45;13.23;;;3.35;;
59418;SDS011;45224;50.904;6.038;2023-04-10T03:05:17;4.45;;;3.22;;
59418;SDS011;45224;50.904;6.038;2023-04-10T03:06:48;3.90;;;3.00;;
59418;SDS011;45224;50.904;6.038;2023-04-10T03:08:18;5.03;;;3.60;;
59418;SDS011;45224;50.904;6.038;2023-04-10T03:09:49;5.27;;;3.90;;
59418;SDS011;45224;50.904;6.038;2023-04-10T03:11:19;4.18;;;3.33;;
59418;SDS011;45224;50.904;6.038;2023-04-10T03:12:50;5.10;;;3.20;;
59418;SDS011;45224;50.904;6.038;2023-04-10T03:14:20;4.10;;;3.10;;
59418;SDS011;45224;50.904;6.038;2023-04-10T03:15:51;4.50;;;3.13;;
59418;SDS011;45224;50.904;6.038;2023-04-10T03:17:22;4.22;;;3.22;;
59418;SDS011;45224;50.904;6.038;2023-04-10T03:18:52;4.37;;;3.37;;
59418;SDS011;45224;50.904;6.038;2023-04-10T03:20:23;3.90;;;2.90;;
59418;SDS011;45224;50.904;6.038;2023-04-10T03:21:53;4.27;;;3.20;;
59418;SDS011;45224;50.904;6.038;2023-04-10T03:23:24;4.53;;;3.40;;
59418;SDS011;45224;50.904;6.038;2023-04-10T03:24:55;4.00;;;3.20;;
59418;SDS011;45224;50.904;6.038;2023-04-10T03:26:27;4.22;;;3.20;;
59418;SDS011;45224;50.904;6.038;2023-04-10T03:29:27;4.03;;;3.23;;
59418;SDS011;45224;50.904;6.038;2023-04-10T03:31:00;4.20;;;3.25;;
59418;SDS011;45224;50.904;6.038;2023-04-10T03:32:35;4.22;;;3.38;;
59418;SDS011;45224;50.904;6.038;2023-04-10T03:34:06;4.93;;;3.37;;
59418;SDS011;45224;50.904;6.038;2023-04-10T03:35:36;5.00;;;3.33;;
59418;SDS011;45224;50.904;6.038;2023-04-10T03:37:07;3.63;;;3.13;;
59418;SDS011;45224;50.904;6.038;2023-04-10T03:38:37;4.60;;;3.13;;
59418;SDS011;45224;50.904;6.038;2023-04-10T03:41:40;3.60;;;2.63;;
59418;SDS011;45224;50.904;6.038;2023-04-10T03:43:10;4.00;;;2.92;;
59418;SDS011;45224;50.904;6.038;2023-04-10T03:44:41;4.68;;;3.50;;
59418;SDS011;45224;50.904;6.038;2023-04-10T03:46:12;4.28;;;3.25;;
59418;SDS011;45224;50.904;6.038;2023-04-10T03:47:48;4.53;;;3.28;;
59418;SDS011;45224;50.904;6.038;2023-04-10T03:49:19;4.18;;;3.10;;
59418;SDS011;45224;50.904;6.038;2023-04-10T03:50:50;4.57;;;3.08;;
59418;SDS011;45224;50.904;6.038;2023-04-10T03:52:20;4.37;;;3.60;;
59418;SDS011;45224;50.904;6.038;2023-04-10T03:53:51;7.47;;;3.50;;
59418;SDS011;45224;50.904;6.038;2023-04-10T03:55:22;4.37;;;3.20;;
59418;SDS011;45224;50.904;6.038;2023-04-10T03:56:54;4.13;;;3.15;;
59418;SDS011;45224;50.904;6.038;2023-04-10T03:58:26;3.92;;;3.40;;
59418;SDS011;45224;50.904;6.038;2023-04-10T03:59:58;5.53;;;3.35;;
59418;SDS011;45224;50.904;6.038;2023-04-10T04:01:30;4.25;;;3.20;;
59418;SDS011;45224;50.904;6.038;2023-04-10T04:03:07;4.10;;;3.20;;
59418;SDS011;45224;50.904;6.038;2023-04-10T04:05:16;4.70;;;3.10;;
59418;SDS011;45224;50.904;6.038;2023-04-10T04:06:52;4.75;;;3.38;;
59418;SDS011;45224;50.904;6.038;2023-04-10T04:08:45;4.07;;;3.10;;
59418;SDS011;45224;50.904;6.038;2023-04-10T04:10:54;4.85;;;3.28;;
59418;SDS011;45224;50.904;6.038;2023-04-10T04:12:31;3.95;;;3.03;;
59418;SDS011;45224;50.904;6.038;2023-04-10T04:14:05;5.18;;;3.28;;
59418;SDS011;45224;50.904;6.038;2023-04-10T04:15:59;4.45;;;3.38;;
59418;SDS011;45224;50.904;6.038;2023-04-10T04:18:01;4.82;;;3.47;;
59418;SDS011;45224;50.904;6.038;2023-04-10T04:19:55;4.07;;;3.20;;
59418;SDS011;45224;50.904;6.038;2023-04-10T04:21:48;5.00;;;3.72;;
59418;SDS011;45224;50.904;6.038;2023-04-10T04:23:42;4.47;;;3.58;;
59418;SDS011;45224;50.904;6.038;2023-04-10T04:25:28;4.47;;;3.42;;
59418;SDS011;45224;50.904;6.038;2023-04-10T04:27:17;5.80;;;3.42;;
59418;SDS011;45224;50.904;6.038;2023-04-10T04:28:53;4.53;;;3.30;;
59418;SDS011;45224;50.904;6.038;2023-04-10T04:30:47;5.38;;;3.47;;
59418;SDS011;45224;50.904;6.038;2023-04-10T04:32:22;4.68;;;3.60;;
59418;SDS011;45224;50.904;6.038;2023-04-10T04:34:11;4.70;;;3.47;;
59418;SDS011;45224;50.904;6.038;2023-04-10T04:36:08;4.20;;;3.40;;
59418;SDS011;45224;50.904;6.038;2023-04-10T04:37:57;4.70;;;3.65;;
59418;SDS011;45224;50.904;6.038;2023-04-10T04:39:46;5.72;;;3.33;;
59418;SDS011;45224;50.904;6.038;2023-04-10T04:43:27;4.85;;;3.05;;
59418;SDS011;45224;50.904;6.038;2023-04-10T04:45:10;4.43;;;3.50;;
59418;SDS011;45224;50.904;6.038;2023-04-10T04:46:51;4.45;;;3.30;;
59418;SDS011;45224;50.904;6.038;2023-04-10T04:48:43;5.35;;;3.78;;
59418;SDS011;45224;50.904;6.038;2023-04-10T04:50:32;4.72;;;3.47;;
59418;SDS011;45224;50.904;6.038;2023-04-10T04:52:25;4.07;;;3.47;;
59418;SDS011;45224;50.904;6.038;2023-04-10T04:54:13;6.22;;;4.10;;
59418;SDS011;45224;50.904;6.038;2023-04-10T04:55:43;4.90;;;3.53;;
59418;SDS011;45224;50.904;6.038;2023-04-10T04:57:28;5.28;;;4.05;;
59418;SDS011;45224;50.904;6.038;2023-04-10T04:59:28;6.00;;;3.97;;
59418;SDS011;45224;50.904;6.038;2023-04-10T05:01:17;6.10;;;3.85;;
59418;SDS011;45224;50.904;6.038;2023-04-10T05:02:56;5.25;;;3.88;;
59418;SDS011;45224;50.904;6.038;2023-04-10T05:04:38;4.80;;;3.90;;
59418;SDS011;45224;50.904;6.038;2023-04-10T05:06:13;5.72;;;3.97;;
59418;SDS011;45224;50.904;6.038;2023-04-10T05:08:10;5.03;;;3.30;;
59418;SDS011;45224;50.904;6.038;2023-04-10T05:09:59;4.50;;;3.53;;
59418;SDS011;45224;50.904;6.038;2023-04-10T05:11:53;4.80;;;3.72;;
59418;SDS011;45224;50.904;6.038;2023-04-10T05:13:43;4.32;;;3.47;;
59418;SDS011;45224;50.904;6.038;2023-04-10T05:15:18;5.07;;;3.53;;
59418;SDS011;45224;50.904;6.038;2023-04-10T05:16:57;4.90;;;3.90;;
59418;SDS011;45224;50.904;6.038;2023-04-10T05:19:06;6.38;;;4.00;;
59418;SDS011;45224;50.904;6.038;2023-04-10T05:20:55;4.97;;;3.70;;
59418;SDS011;45224;50.904;6.038;2023-04-10T05:22:43;4.30;;;3.50;;
59418;SDS011;45224;50.904;6.038;2023-04-10T05:24:37;5.07;;;3.83;;
59418;SDS011;45224;50.904;6.038;2023-04-10T05:26:19;4.57;;;3.65;;
59418;SDS011;45224;50.904;6.038;2023-04-10T05:28:16;5.22;;;3.92;;
59418;SDS011;45224;50.904;6.038;2023-04-10T05:30:05;5.03;;;3.80;;
59418;SDS011;45224;50.904;6.038;2023-04-10T05:31:43;6.15;;;3.85;;
59418;SDS011;45224;50.904;6.038;2023-04-10T05:33:18;5.63;;;3.95;;
59418;SDS011;45224;50.904;6.038;2023-04-10T05:35:11;6.00;;;3.80;;
59418;SDS011;45224;50.904;6.038;2023-04-10T05:36:49;4.72;;;3.63;;
59418;SDS011;45224;50.904;6.038;2023-04-10T05:38:26;5.63;;;4.20;;
59418;SDS011;45224;50.904;6.038;2023-04-10T05:40:14;5.25;;;3.92;;
59418;SDS011;45224;50.904;6.038;2023-04-10T05:41:58;4.97;;;3.97;;
59418;SDS011;45224;50.904;6.038;2023-04-10T05:43:36;4.63;;;3.80;;
59418;SDS011;45224;50.904;6.038;2023-04-10T05:45:25;5.00;;;3.83;;
59418;SDS011;45224;50.904;6.038;2023-04-10T05:47:26;4.72;;;3.70;;
59418;SDS011;45224;50.904;6.038;2023-04-10T05:49:16;5.22;;;3.42;;
59418;SDS011;45224;50.904;6.038;2023-04-10T05:51:05;5.72;;;4.45;;
59418;SDS011;45224;50.904;6.038;2023-04-10T05:53:00;4.95;;;3.83;;
59418;SDS011;45224;50.904;6.038;2023-04-10T05:54:45;5.20;;;3.90;;
59418;SDS011;45224;50.904;6.038;2023-04-10T05:56:35;5.18;;;3.80;;
59418;SDS011;45224;50.904;6.038;2023-04-10T05:58:32;5.90;;;4.18;;
59418;SDS011;45224;50.904;6.038;2023-04-10T06:00:26;4.90;;;3.97;;
59418;SDS011;45224;50.904;6.038;2023-04-10T06:02:28;6.28;;;4.05;;
59418;SDS011;45224;50.904;6.038;2023-04-10T06:03:59;5.43;;;4.23;;
59418;SDS011;45224;50.904;6.038;2023-04-10T06:05:30;5.40;;;4.32;;
59418;SDS011;45224;50.904;6.038;2023-04-10T06:07:05;5.03;;;3.88;;
59418;SDS011;45224;50.904;6.038;2023-04-10T06:08:36;4.95;;;3.97;;
59418;SDS011;45224;50.904;6.038;2023-04-10T06:10:07;4.57;;;3.80;;
59418;SDS011;45224;50.904;6.038;2023-04-10T06:11:40;5.45;;;4.32;;
59418;SDS011;45224;50.904;6.038;2023-04-10T06:13:10;11.13;;;4.50;;
59418;SDS011;45224;50.904;6.038;2023-04-10T06:14:41;4.18;;;3.33;;
59418;SDS011;45224;50.904;6.038;2023-04-10T06:16:12;4.85;;;3.38;;
59418;SDS011;45224;50.904;6.038;2023-04-10T06:17:44;4.38;;;3.63;;
59418;SDS011;45224;50.904;6.038;2023-04-10T06:19:15;4.03;;;3.40;;
59418;SDS011;45224;50.904;6.038;2023-04-10T06:20:45;4.80;;;3.77;;
59418;SDS011;45224;50.904;6.038;2023-04-10T06:22:16;4.67;;;3.30;;
59418;SDS011;45224;50.904;6.038;2023-04-10T06:23:47;5.22;;;3.55;;
59418;SDS011;45224;50.904;6.038;2023-04-10T06:25:18;9.70;;;3.60;;
59418;SDS011;45224;50.904;6.038;2023-04-10T06:26:48;5.37;;;3.57;;
59418;SDS011;45224;50.904;6.038;2023-04-10T06:28:19;7.20;;;3.63;;
59418;SDS011;45224;50.904;6.038;2023-04-10T06:29:52;5.38;;;3.78;;
59418;SDS011;45224;50.904;6.038;2023-04-10T06:31:26;5.72;;;3.55;;
59418;SDS011;45224;50.904;6.038;2023-04-10T06:32:57;4.30;;;3.60;;
59418;SDS011;45224;50.904;6.038;2023-04-10T06:34:27;4.47;;;3.60;;
59418;SDS011;45224;50.904;6.038;2023-04-10T06:36:06;4.22;;;3.33;;
59418;SDS011;45224;50.904;6.038;2023-04-10T06:37:41;4.30;;;3.35;;
59418;SDS011;45224;50.904;6.038;2023-04-10T06:39:12;4.10;;;3.38;;
59418;SDS011;45224;50.904;6.038;2023-04-10T06:40:43;4.10;;;3.50;;
59418;SDS011;45224;50.904;6.038;2023-04-10T06:42:13;4.60;;;3.77;;
59418;SDS011;45224;50.904;6.038;2023-04-10T06:43:59;4.30;;;3.45;;
59418;SDS011;45224;50.904;6.038;2023-04-10T06:45:29;3.77;;;3.30;;
59418;SDS011;45224;50.904;6.038;2023-04-10T06:47:00;3.73;;;3.17;;
59418;SDS011;45224;50.904;6.038;2023-04-10T06:48:30;4.90;;;3.23;;
59418;SDS011;45224;50.904;6.038;2023-04-10T06:50:01;4.22;;;3.22;;
59418;SDS011;45224;50.904;6.038;2023-04-10T06:51:32;3.90;;;3.33;;
59418;SDS011;45224;50.904;6.038;2023-04-10T06:53:02;6.60;;;3.87;;
59418;SDS011;45224;50.904;6.038;2023-04-10T06:54:33;4.13;;;3.30;;
59418;SDS011;45224;50.904;6.038;2023-04-10T06:56:03;3.67;;;2.93;;
59418;SDS011;45224;50.904;6.038;2023-04-10T06:57:34;7.18;;;3.10;;
59418;SDS011;45224;50.904;6.038;2023-04-10T06:59:05;3.42;;;3.13;;
59418;SDS011;45224;50.904;6.038;2023-04-10T07:00:35;4.20;;;3.53;;
59418;SDS011;45224;50.904;6.038;2023-04-10T07:02:06;4.23;;;3.03;;
59418;SDS011;45224;50.904;6.038;2023-04-10T07:03:36;4.13;;;3.40;;
59418;SDS011;45224;50.904;6.038;2023-04-10T07:05:07;3.00;;;2.70;;
59418;SDS011;45224;50.904;6.038;2023-04-10T07:06:38;3.80;;;2.90;;
59418;SDS011;45224;50.904;6.038;2023-04-10T07:08:08;3.53;;;2.73;;
59418;SDS011;45224;50.904;6.038;2023-04-10T07:09:39;3.00;;;2.70;;
59418;SDS011;45224;50.904;6.038;2023-04-10T07:11:10;3.95;;;3.25;;
59418;SDS011;45224;50.904;6.038;2023-04-10T07:12:40;3.10;;;2.70;;
59418;SDS011;45224;50.904;6.038;2023-04-10T07:14:11;3.85;;;2.65;;
59418;SDS011;45224;50.904;6.038;2023-04-10T07:15:41;2.87;;;2.57;;
59418;SDS011;45224;50.904;6.038;2023-04-10T07:17:12;2.60;;;2.40;;
59418;SDS011;45224;50.904;6.038;2023-04-10T07:18:42;3.20;;;2.80;;
59418;SDS011;45224;50.904;6.038;2023-04-10T07:20:13;4.23;;;2.80;;
59418;SDS011;45224;50.904;6.038;2023-04-10T07:21:43;2.93;;;2.50;;
59418;SDS011;45224;50.904;6.038;2023-04-10T07:23:14;2.97;;;2.50;;
59418;SDS011;45224;50.904;6.038;2023-04-10T07:24:44;3.00;;;2.70;;
59418;SDS011;45224;50.904;6.038;2023-04-10T07:26:15;3.10;;;2.70;;
59418;SDS011;45224;50.904;6.038;2023-04-10T07:27:45;2.63;;;2.35;;
59418;SDS011;45224;50.904;6.038;2023-04-10T07:29:16;3.00;;;2.50;;
59418;SDS011;45224;50.904;6.038;2023-04-10T07:30:47;2.75;;;2.55;;
59418;SDS011;45224;50.904;6.038;2023-04-10T07:32:17;27.07;;;2.87;;
59418;SDS011;45224;50.904;6.038;2023-04-10T07:33:48;4.37;;;3.30;;
59418;SDS011;45224;50.904;6.038;2023-04-10T07:35:19;3.10;;;2.80;;
59418;SDS011;45224;50.904;6.038;2023-04-10T07:36:49;5.07;;;2.73;;
59418;SDS011;45224;50.904;6.038;2023-04-10T07:38:20;4.75;;;3.03;;
59418;SDS011;45224;50.904;6.038;2023-04-10T07:39:50;2.90;;;2.60;;
59418;SDS011;45224;50.904;6.038;2023-04-10T07:41:20;2.75;;;2.50;;
59418;SDS011;45224;50.904;6.038;2023-04-10T07:42:51;3.00;;;2.70;;
59418;SDS011;45224;50.904;6.038;2023-04-10T07:44:22;6.17;;;2.50;;
59418;SDS011;45224;50.904;6.038;2023-04-10T07:45:52;3.28;;;2.78;;
59418;SDS011;45224;50.904;6.038;2023-04-10T07:47:22;7.17;;;2.60;;
59418;SDS011;45224;50.904;6.038;2023-04-10T07:48:53;4.07;;;2.57;;
59418;SDS011;45224;50.904;6.038;2023-04-10T07:50:26;2.58;;;2.30;;
59418;SDS011;45224;50.904;6.038;2023-04-10T07:51:57;2.70;;;2.47;;
59418;SDS011;45224;50.904;6.038;2023-04-10T07:53:27;4.80;;;2.27;;
59418;SDS011;45224;50.904;6.038;2023-04-10T07:55:00;3.70;;;2.42;;
59418;SDS011;45224;50.904;6.038;2023-04-10T07:56:32;2.53;;;2.30;;
59418;SDS011;45224;50.904;6.038;2023-04-10T07:58:02;2.70;;;2.40;;
59418;SDS011;45224;50.904;6.038;2023-04-10T07:59:33;2.90;;;2.47;;
59418;SDS011;45224;50.904;6.038;2023-04-10T08:01:03;2.77;;;2.50;;
59418;SDS011;45224;50.904;6.038;2023-04-10T08:02:34;4.60;;;2.40;;
59418;SDS011;45224;50.904;6.038;2023-04-10T08:04:05;2.85;;;2.15;;
59418;SDS011;45224;50.904;6.038;2023-04-10T08:05:35;2.40;;;2.20;;
59418;SDS011;45224;50.904;6.038;2023-04-10T08:07:06;2.53;;;2.33;;
59418;SDS011;45224;50.904;6.038;2023-04-10T08:08:39;5.95;;;2.20;;
59418;SDS011;45224;50.904;6.038;2023-04-10T08:10:11;2.60;;;2.35;;
59418;SDS011;45224;50.904;6.038;2023-04-10T08:11:42;3.78;;;2.30;;
59418;SDS011;45224;50.904;6.038;2023-04-10T08:13:12;2.50;;;2.10;;
59418;SDS011;45224;50.904;6.038;2023-04-10T08:14:43;2.97;;;2.30;;
59418;SDS011;45224;50.904;6.038;2023-04-10T08:16:14;2.65;;;2.20;;
59418;SDS011;45224;50.904;6.038;2023-04-10T08:17:44;2.30;;;2.10;;
59418;SDS011;45224;50.904;6.038;2023-04-10T08:19:15;6.63;;;1.90;;
59418;SDS011;45224;50.904;6.038;2023-04-10T08:20:45;10.23;;;2.27;;
59418;SDS011;45224;50.904;6.038;2023-04-10T08:22:16;5.37;;;2.40;;
59418;SDS011;45224;50.904;6.038;2023-04-10T08:23:48;6.20;;;2.50;;
59418;SDS011;45224;50.904;6.038;2023-04-10T08:25:20;2.67;;;2.20;;
59418;SDS011;45224;50.904;6.038;2023-04-10T08:26:50;2.40;;;2.20;;
59418;SDS011;45224;50.904;6.038;2023-04-10T08:28:21;2.23;;;2.03;;
59418;SDS011;45224;50.904;6.038;2023-04-10T08:29:51;2.30;;;1.90;;
59418;SDS011;45224;50.904;6.038;2023-04-10T08:31:22;2.70;;;2.10;;
59418;SDS011;45224;50.904;6.038;2023-04-10T08:32:53;3.35;;;2.22;;
59418;SDS011;45224;50.904;6.038;2023-04-10T08:35:56;1.70;;;1.60;;
59418;SDS011;45224;50.904;6.038;2023-04-10T08:37:27;2.25;;;1.83;;
59418;SDS011;45224;50.904;6.038;2023-04-10T08:38:57;2.20;;;2.00;;
59418;SDS011;45224;50.904;6.038;2023-04-10T08:40:28;4.20;;;1.87;;
59418;SDS011;45224;50.904;6.038;2023-04-10T08:41:59;1.85;;;1.55;;
59418;SDS011;45224;50.904;6.038;2023-04-10T08:43:29;3.63;;;1.85;;
59418;SDS011;45224;50.904;6.038;2023-04-10T08:45:00;2.40;;;2.10;;
59418;SDS011;45224;50.904;6.038;2023-04-10T08:46:30;2.42;;;1.88;;
59418;SDS011;45224;50.904;6.038;2023-04-10T08:48:05;1.67;;;1.50;;
59418;SDS011;45224;50.904;6.038;2023-04-10T08:49:43;2.72;;;2.30;;
59418;SDS011;45224;50.904;6.038;2023-04-10T08:51:20;2.10;;;1.90;;
59418;SDS011;45224;50.904;6.038;2023-04-10T08:52:51;5.20;;;1.90;;
59418;SDS011;45224;50.904;6.038;2023-04-10T08:54:25;2.03;;;1.88;;
59418;SDS011;45224;50.904;6.038;2023-04-10T08:55:57;3.47;;;1.70;;
59418;SDS011;45224;50.904;6.038;2023-04-10T08:57:33;1.98;;;1.88;;
59418;SDS011;45224;50.904;6.038;2023-04-10T08:59:06;2.20;;;1.83;;
59418;SDS011;45224;50.904;6.038;2023-04-10T09:00:37;1.70;;;1.60;;
59418;SDS011;45224;50.904;6.038;2023-04-10T09:02:08;3.03;;;1.83;;
59418;SDS011;45224;50.904;6.038;2023-04-10T09:03:38;3.20;;;1.83;;
59418;SDS011;45224;50.904;6.038;2023-04-10T09:05:10;1.83;;;1.63;;
59418;SDS011;45224;50.904;6.038;2023-04-10T09:06:42;1.90;;;1.80;;
59418;SDS011;45224;50.904;6.038;2023-04-10T09:08:13;2.25;;;2.00;;
59418;SDS011;45224;50.904;6.038;2023-04-10T09:09:44;5.20;;;2.10;;
59418;SDS011;45224;50.904;6.038;2023-04-10T09:11:14;1.95;;;1.80;;
59418;SDS011;45224;50.904;6.038;2023-04-10T09:12:46;2.53;;;1.70;;
59418;SDS011;45224;50.904;6.038;2023-04-10T09:14:20;3.58;;;1.98;;
59418;SDS011;45224;50.904;6.038;2023-04-10T09:15:55;1.98;;;1.80;;
59418;SDS011;45224;50.904;6.038;2023-04-10T09:17:27;4.40;;;1.98;;
59418;SDS011;45224;50.904;6.038;2023-04-10T09:18:58;2.00;;;1.80;;
59418;SDS011;45224;50.904;6.038;2023-04-10T09:20:31;2.15;;;1.95;;
59418;SDS011;45224;50.904;6.038;2023-04-10T09:22:03;3.42;;;1.92;;
59418;SDS011;45224;50.904;6.038;2023-04-10T09:23:33;2.97;;;2.05;;
59418;SDS011;45224;50.904;6.038;2023-04-10T09:25:04;2.40;;;2.20;;
59418;SDS011;45224;50.904;6.038;2023-04-10T09:26:34;2.83;;;1.90;;
59418;SDS011;45224;50.904;6.038;2023-04-10T09:28:06;4.57;;;2.10;;
59418;SDS011;45224;50.904;6.038;2023-04-10T09:29:42;1.85;;;1.73;;
59418;SDS011;45224;50.904;6.038;2023-04-10T09:31:26;2.20;;;2.00;;
59418;SDS011;45224;50.904;6.038;2023-04-10T09:33:22;3.25;;;1.90;;
59418;SDS011;45224;50.904;6.038;2023-04-10T09:34:56;2.40;;;1.92;;
59418;SDS011;45224;50.904;6.038;2023-04-10T09:36:28;1.90;;;1.70;;
59418;SDS011;45224;50.904;6.038;2023-04-10T09:37:58;1.87;;;1.77;;
59418;SDS011;45224;50.904;6.038;2023-04-10T09:39:33;1.90;;;1.70;;
59418;SDS011;45224;50.904;6.038;2023-04-10T09:41:05;1.70;;;1.60;;
59418;SDS011;45224;50.904;6.038;2023-04-10T09:42:37;2.03;;;1.58;;
59418;SDS011;45224;50.904;6.038;2023-04-10T09:44:09;1.77;;;1.67;;
59418;SDS011;45224;50.904;6.038;2023-04-10T09:45:50;2.38;;;1.67;;
59418;SDS011;45224;50.904;6.038;2023-04-10T09:47:22;2.88;;;1.80;;
59418;SDS011;45224;50.904;6.038;2023-04-10T09:48:55;1.92;;;1.75;;
59418;SDS011;45224;50.904;6.038;2023-04-10T09:50:38;1.83;;;1.70;;
59418;SDS011;45224;50.904;6.038;2023-04-10T09:52:22;1.90;;;1.70;;
59418;SDS011;45224;50.904;6.038;2023-04-10T09:53:57;3.05;;;1.80;;
59418;SDS011;45224;50.904;6.038;2023-04-10T09:55:27;2.83;;;1.73;;
59418;SDS011;45224;50.904;6.038;2023-04-10T09:56:59;3.42;;;1.75;;
59418;SDS011;45224;50.904;6.038;2023-04-10T09:58:30;2.15;;;1.90;;